Startpagina
METAR-TAF:

METAR-TAF

Vliegvelden :

Kuala Lumpur International Airport

Kuala Lumpur, Maleisië

breedte: 02-44N, lengte: 101-42E, hoogte: 21 m

Actueel weer

Dit bericht is 31 minuten geleden gemaakt, om 03:00 UTC
Wind 1 kt uit variabele richting
Temperatuur 32°C
Vochtigheid 67%
Druk 1012 hPa
Zicht: 9000 m
Weinig wolken op 1800 ft

METAR: WMKK 130300Z VRB01KT 9000 FEW018 32/25 Q1012 NOSIG

Tijdstip: 11:31 (03:31 UTC)

Verwachting

Dit bericht is 4 uur en het 31 minuten geleden gemaakt, om 23:00 UTC
Verwachting geldig van 13 om 00 UTC tot 14 om 06 UTC
Wind 2 kt uit variabele richting
Zicht 10 km of meer
Weinig wolken op 1800 ft
Kans 30% :
Tijdelijke
van 13 om 08 UTC tot 13 om 12 UTC
Zicht: 4000 m
Weinig wolken op 1700 ft, Cumulonimbus.
onweer, regen,

TAF: WMKK 122300Z 1300/1406 VRB02KT 9999 FEW018 PROB30 TEMPO 1308/1312 4000 TSRA FEW017CB

Waarnemingen en weersverwachtingen van meer dan 4000 vliegvelden (METAR en TAF).

De beschikbare stations zijn de gele en rode punten op de kaart.

Ga met uw muis naar het station om de naam te zien.

Klik dan om waarnemingen en weersverwachtingen te zien.

kaart wijzigen: klik op de groene knoppen met een zwart kruis om in te zoomen, op de groene knop met een streepje om uit te zoomen of op de groene pijlen voor aangrenzende kaarten.


METAR-TAF: